UIBB

Bratsk Airport

Bratsk, Russian Federation
TAF UIBB 181100Z 1812/1912 01003MPS 6000 -SHRA BKN011CB TEMPO 1815/1903 0300 FG VV001
Issued Valid From Valid To
Oct-18 @ 11:00 UTC
(an hour ago)
Oct-18 @ 12:00 UTC
(13 minutes ago)
Oct-19 @ 12:00 UTC
(in 24 hours)
Oct-18 @ 12:00 to Oct-19 @ 12:00
TAF UIBB 181100Z 1812/1912 01003MPS 6000 -SHRA BKN011CB
Wind Visibility Clouds Conditions
10° at 6 knots 6,003 meters
  • Broken at 1,100' AGL
  • Light Rain
Temporary Oct-18 @ 15:00 to Oct-19 @ 03:00
TEMPO 1815/1903 0300 FG VV001
Visibility Clouds Conditions
306 meters
  • Vertical visibility at 100' AGL
  • Fog
TAF UIBB 181100Z 1812/1912 01003MPS 6000 -SHRA BKN011CB TEMPO 1815/1903 0300 FG VV001
Issued Oct-18 @ 11:00 UTC
(an hour ago)
Valid From Oct-18 @ 12:00 UTC
(13 minutes ago)
Valid To Oct-19 @ 12:00 UTC
(in 24 hours)
Oct-18 @ 12:00 - Oct-19 @ 12:00
Wind Visibility
10° at 6 knots 6,003 meters
Clouds
  • Broken at 1,100' AGL
Conditions
  • Light Rain
Temporary Oct-18 @ 15:00 - Oct-19 @ 03:00
Clouds
  • Vertical visibility at 100' AGL
Conditions
  • Fog